sensor_id;sensor_type;location;lat;lon;timestamp;pressure;altitude;pressure_sealevel;temperature;humidity
68525;BME280;55524;51.380;13.372;2023-01-28T00:01:07;101562.41;;;0.49;100.00
68525;BME280;55524;51.380;13.372;2023-01-28T00:03:34;101564.94;;;0.46;100.00
68525;BME280;55524;51.380;13.372;2023-01-28T00:06:05;101568.41;;;0.46;100.00
68525;BME280;55524;51.380;13.372;2023-01-28T00:08:32;101571.88;;;0.47;100.00
68525;BME280;55524;51.380;13.372;2023-01-28T00:11:03;101576.97;;;0.42;100.00
68525;BME280;55524;51.380;13.372;2023-01-28T00:13:30;101577.94;;;0.46;100.00
68525;BME280;55524;51.380;13.372;2023-01-28T00:15:59;101579.59;;;0.42;100.00
68525;BME280;55524;51.380;13.372;2023-01-28T00:18:27;101577.84;;;0.43;100.00
68525;BME280;55524;51.380;13.372;2023-01-28T00:21:06;101582.28;;;0.47;100.00
68525;BME280;55524;51.380;13.372;2023-01-28T00:23:35;101579.59;;;0.42;100.00
68525;BME280;55524;51.380;13.372;2023-01-28T00:26:05;101582.19;;;0.42;100.00
68525;BME280;55524;51.380;13.372;2023-01-28T00:28:32;101578.72;;;0.42;100.00
68525;BME280;55524;51.380;13.372;2023-01-28T00:31:04;101586.47;;;0.40;100.00
68525;BME280;55524;51.380;13.372;2023-01-28T00:33:31;101583.03;;;0.41;100.00
68525;BME280;55524;51.380;13.372;2023-01-28T00:35:59;101581.28;;;0.40;100.00
68525;BME280;55524;51.380;13.372;2023-01-28T00:38:26;101581.19;;;0.36;100.00
68525;BME280;55524;51.380;13.372;2023-01-28T00:40:53;101586.47;;;0.40;100.00
68525;BME280;55524;51.380;13.372;2023-01-28T00:43:19;101592.50;;;0.39;100.00
68525;BME280;55524;51.380;13.372;2023-01-28T00:45:45;101584.59;;;0.33;100.00
68525;BME280;55524;51.380;13.372;2023-01-28T00:48:12;101587.13;;;0.32;100.00
68525;BME280;55524;51.380;13.372;2023-01-28T00:50:38;101590.56;;;0.31;100.00
68525;BME280;55524;51.380;13.372;2023-01-28T00:53:05;101587.22;;;0.35;100.00
68525;BME280;55524;51.380;13.372;2023-01-28T00:55:31;101593.88;;;0.23;100.00
68525;BME280;55524;51.380;13.372;2023-01-28T00:57:57;101588.84;;;0.30;100.00
68525;BME280;55524;51.380;13.372;2023-01-28T01:00:24;101585.16;;;0.20;100.00
68525;BME280;55524;51.380;13.372;2023-01-28T01:02:51;101595.56;;;0.20;100.00
68525;BME280;55524;51.380;13.372;2023-01-28T01:05:17;101589.41;;;0.16;100.00
68525;BME280;55524;51.380;13.372;2023-01-28T01:07:44;101592.00;;;0.16;100.00
68525;BME280;55524;51.380;13.372;2023-01-28T01:10:12;101601.38;;;0.11;100.00
68525;BME280;55524;51.380;13.372;2023-01-28T01:12:39;101594.34;;;0.06;100.00
68525;BME280;55524;51.380;13.372;2023-01-28T01:15:07;101596.94;;;0.06;100.00
68525;BME280;55524;51.380;13.372;2023-01-28T01:17:39;101594.31;;;0.04;100.00
68525;BME280;55524;51.380;13.372;2023-01-28T01:20:08;101606.97;;;-0.08;100.00
68525;BME280;55524;51.380;13.372;2023-01-28T01:22:36;101598.53;;;0.01;100.00
68525;BME280;55524;51.380;13.372;2023-01-28T01:25:03;101597.53;;;-0.05;100.00
68525;BME280;55524;51.380;13.372;2023-01-28T01:27:30;101593.88;;;-0.13;100.00
68525;BME280;55524;51.380;13.372;2023-01-28T01:29:57;101593.72;;;-0.19;100.00
68525;BME280;55524;51.380;13.372;2023-01-28T01:32:24;101586.81;;;-0.18;100.00
68525;BME280;55524;51.380;13.372;2023-01-28T01:34:54;101599.63;;;-0.25;100.00
68525;BME280;55524;51.380;13.372;2023-01-28T01:37:20;101591.94;;;-0.20;100.00
68525;BME280;55524;51.380;13.372;2023-01-28T01:39:46;101584.91;;;-0.26;100.00
68525;BME280;55524;51.380;13.372;2023-01-28T01:42:13;101584.94;;;-0.24;100.00
68525;BME280;55524;51.380;13.372;2023-01-28T01:45:12;101591.72;;;-0.31;100.00
68525;BME280;55524;51.380;13.372;2023-01-28T01:50:35;101590.63;;;-0.39;100.00
68525;BME280;55524;51.380;13.372;2023-01-28T01:53:25;101588.81;;;-0.41;100.00
68525;BME280;55524;51.380;13.372;2023-01-28T01:55:53;101597.41;;;-0.44;100.00
68525;BME280;55524;51.380;13.372;2023-01-28T01:58:27;101595.56;;;-0.48;100.00
68525;BME280;55524;51.380;13.372;2023-01-28T02:00:54;101596.47;;;-0.47;100.00
68525;BME280;55524;51.380;13.372;2023-01-28T02:03:27;101597.28;;;-0.48;100.00
68525;BME280;55524;51.380;13.372;2023-01-28T02:05:55;101603.28;;;-0.51;100.00
68525;BME280;55524;51.380;13.372;2023-01-28T02:08:22;101605.91;;;-0.50;100.00
68525;BME280;55524;51.380;13.372;2023-01-28T02:10:57;101609.94;;;-0.61;100.00
68525;BME280;55524;51.380;13.372;2023-01-28T02:13:29;101603.88;;;-0.61;100.00
68525;BME280;55524;51.380;13.372;2023-01-28T02:15:58;101608.19;;;-0.62;100.00
68525;BME280;55524;51.380;13.372;2023-01-28T02:18:26;101615.84;;;-0.66;100.00
68525;BME280;55524;51.380;13.372;2023-01-28T02:26:58;101637.28;;;-0.73;100.00
68525;BME280;55524;51.380;13.372;2023-01-28T02:32:13;101625.22;;;-0.71;100.00
68525;BME280;55524;51.380;13.372;2023-01-28T02:35:40;101625.16;;;-0.75;100.00
68525;BME280;55524;51.380;13.372;2023-01-28T02:37:50;101631.00;;;-0.82;100.00
68525;BME280;55524;51.380;13.372;2023-01-28T02:40:24;101622.25;;;-0.85;100.00
68525;BME280;55524;51.380;13.372;2023-01-28T02:42:55;101627.41;;;-0.87;100.00
68525;BME280;55524;51.380;13.372;2023-01-28T02:45:27;101624.75;;;-0.88;100.00
68525;BME280;55524;51.380;13.372;2023-01-28T02:48:17;101625.63;;;-0.88;100.00
68525;BME280;55524;51.380;13.372;2023-01-28T02:54:12;101641.78;;;-0.98;100.00
68525;BME280;55524;51.380;13.372;2023-01-28T03:04:52;101637.66;;;-1.20;100.00
68525;BME280;55524;51.380;13.372;2023-01-28T03:07:24;101638.06;;;-1.35;100.00
68525;BME280;55524;51.380;13.372;2023-01-28T03:09:54;101637.94;;;-1.39;100.00
68525;BME280;55524;51.380;13.372;2023-01-28T03:12:26;101637.28;;;-1.32;100.00
68525;BME280;55524;51.380;13.372;2023-01-28T03:15:16;101637.03;;;-1.41;100.00
68525;BME280;55524;51.380;13.372;2023-01-28T03:18:17;101639.66;;;-1.40;100.00
68525;BME280;55524;51.380;13.372;2023-01-28T03:21:19;101636.91;;;-1.44;100.00
68525;BME280;55524;51.380;13.372;2023-01-28T03:24:28;101641.91;;;-1.51;100.00
68525;BME280;55524;51.380;13.372;2023-01-28T03:30:28;101653.81;;;-1.57;100.00
68525;BME280;55524;51.380;13.372;2023-01-28T03:33:16;101659.13;;;-1.53;100.00
68525;BME280;55524;51.380;13.372;2023-01-28T03:36:02;101656.41;;;-1.57;100.00
68525;BME280;55524;51.380;13.372;2023-01-28T03:38:47;101657.25;;;-1.58;100.00
68525;BME280;55524;51.380;13.372;2023-01-28T03:41:20;101661.59;;;-1.57;100.00
68525;BME280;55524;51.380;13.372;2023-01-28T03:43:48;101660.63;;;-1.59;100.00
68525;BME280;55524;51.380;13.372;2023-01-28T03:46:15;101671.94;;;-1.57;100.00
68525;BME280;55524;51.380;13.372;2023-01-28T03:48:41;101667.63;;;-1.57;100.00
68525;BME280;55524;51.380;13.372;2023-01-28T03:51:07;101672.97;;;-1.52;100.00
68525;BME280;55524;51.380;13.372;2023-01-28T03:53:34;101667.91;;;-1.48;100.00
68525;BME280;55524;51.380;13.372;2023-01-28T03:56:00;101674.88;;;-1.46;100.00
68525;BME280;55524;51.380;13.372;2023-01-28T03:58:26;101672.97;;;-1.52;100.00
68525;BME280;55524;51.380;13.372;2023-01-28T04:01:11;101673.94;;;-1.49;100.00
68525;BME280;55524;51.380;13.372;2023-01-28T04:03:38;101681.56;;;-1.53;100.00
68525;BME280;55524;51.380;13.372;2023-01-28T04:06:06;101673.81;;;-1.53;100.00
68525;BME280;55524;51.380;13.372;2023-01-28T04:08:33;101678.69;;;-1.62;100.00
68525;BME280;55524;51.380;13.372;2023-01-28T04:11:00;101677.72;;;-1.66;100.00
68525;BME280;55524;51.380;13.372;2023-01-28T04:13:44;101668.81;;;-1.74;100.00
68525;BME280;55524;51.380;13.372;2023-01-28T04:16:12;101680.09;;;-1.72;100.00
68525;BME280;55524;51.380;13.372;2023-01-28T04:18:39;101678.81;;;-1.85;100.00
68525;BME280;55524;51.380;13.372;2023-01-28T04:21:05;101676.84;;;-1.92;100.00
68525;BME280;55524;51.380;13.372;2023-01-28T04:23:31;101676.63;;;-1.98;100.00
68525;BME280;55524;51.380;13.372;2023-01-28T04:25:58;101686.06;;;-2.00;100.00
68525;BME280;55524;51.380;13.372;2023-01-28T04:28:24;101685.03;;;-2.05;100.00
68525;BME280;55524;51.380;13.372;2023-01-28T04:30:51;101687.63;;;-2.05;100.00
68525;BME280;55524;51.380;13.372;2023-01-28T04:33:18;101694.25;;;-2.13;100.00
68525;BME280;55524;51.380;13.372;2023-01-28T04:35:44;101700.88;;;-2.21;100.00
68525;BME280;55524;51.380;13.372;2023-01-28T04:38:10;101702.63;;;-2.20;100.00
68525;BME280;55524;51.380;13.372;2023-01-28T04:40:36;101707.81;;;-2.20;100.00
68525;BME280;55524;51.380;13.372;2023-01-28T04:43:03;101701.81;;;-2.19;100.00
68525;BME280;55524;51.380;13.372;2023-01-28T04:45:29;101705.00;;;-2.27;100.00
68525;BME280;55524;51.380;13.372;2023-01-28T04:47:56;101706.66;;;-2.29;100.00
68525;BME280;55524;51.380;13.372;2023-01-28T04:50:22;101704.66;;;-2.37;100.00
68525;BME280;55524;51.380;13.372;2023-01-28T04:52:48;101698.63;;;-2.36;100.00
68525;BME280;55524;51.380;13.372;2023-01-28T04:55:15;101711.22;;;-2.45;100.00
68525;BME280;55524;51.380;13.372;2023-01-28T04:57:41;101704.28;;;-2.47;100.00
68525;BME280;55524;51.380;13.372;2023-01-28T05:00:08;101701.78;;;-2.45;100.00
68525;BME280;55524;51.380;13.372;2023-01-28T05:02:35;101696.47;;;-2.48;100.00
68525;BME280;55524;51.380;13.372;2023-01-28T05:05:01;101700.00;;;-2.46;100.00
68525;BME280;55524;51.380;13.372;2023-01-28T05:07:29;101701.22;;;-2.60;100.00
68525;BME280;55524;51.380;13.372;2023-01-28T05:09:56;101699.47;;;-2.61;100.00
68525;BME280;55524;51.380;13.372;2023-01-28T05:12:22;101713.88;;;-2.68;100.00
68525;BME280;55524;51.380;13.372;2023-01-28T05:14:48;101713.75;;;-2.71;100.00
68525;BME280;55524;51.380;13.372;2023-01-28T05:17:14;101717.94;;;-2.75;100.00
68525;BME280;55524;51.380;13.372;2023-01-28T05:19:41;101723.63;;;-2.83;100.00
68525;BME280;55524;51.380;13.372;2023-01-28T05:22:07;101720.19;;;-2.84;100.00
68525;BME280;55524;51.380;13.372;2023-01-28T05:24:33;101725.19;;;-2.88;100.00
68525;BME280;55524;51.380;13.372;2023-01-28T05:26:59;101728.78;;;-2.85;100.00
68525;BME280;55524;51.380;13.372;2023-01-28T05:29:26;101726.88;;;-2.89;100.00
68525;BME280;55524;51.380;13.372;2023-01-28T05:31:52;101739.56;;;-2.95;100.00
68525;BME280;55524;51.380;13.372;2023-01-28T05:34:18;101733.41;;;-2.99;100.00
68525;BME280;55524;51.380;13.372;2023-01-28T05:36:44;101739.44;;;-2.98;100.00
68525;BME280;55524;51.380;13.372;2023-01-28T05:39:11;101744.44;;;-3.03;100.00
68525;BME280;55524;51.380;13.372;2023-01-28T05:41:37;101746.16;;;-3.03;100.00
68525;BME280;55524;51.380;13.372;2023-01-28T05:44:03;101756.84;;;-2.94;100.00
68525;BME280;55524;51.380;13.372;2023-01-28T05:46:29;101754.97;;;-2.98;100.00
68525;BME280;55524;51.380;13.372;2023-01-28T05:48:56;101755.97;;;-2.94;100.00
68525;BME280;55524;51.380;13.372;2023-01-28T05:51:22;101755.91;;;-2.96;100.00
68525;BME280;55524;51.380;13.372;2023-01-28T05:53:48;101758.69;;;-2.91;100.00
68525;BME280;55524;51.380;13.372;2023-01-28T05:56:14;101762.13;;;-2.91;100.00
68525;BME280;55524;51.380;13.372;2023-01-28T05:58:41;101769.44;;;-2.81;100.00
68525;BME280;55524;51.380;13.372;2023-01-28T06:01:07;101771.66;;;-2.67;100.00
68525;BME280;55524;51.380;13.372;2023-01-28T06:03:33;101770.13;;;-2.62;100.00
68525;BME280;55524;51.380;13.372;2023-01-28T06:05:59;101774.66;;;-2.57;100.00
68525;BME280;55524;51.380;13.372;2023-01-28T06:08:26;101775.75;;;-2.50;100.00
68525;BME280;55524;51.380;13.372;2023-01-28T06:10:52;101782.50;;;-2.54;100.00
68525;BME280;55524;51.380;13.372;2023-01-28T06:13:18;101778.28;;;-2.52;100.00
68525;BME280;55524;51.380;13.372;2023-01-28T06:15:47;101788.97;;;-2.42;100.00
68525;BME280;55524;51.380;13.372;2023-01-28T06:18:13;101789.69;;;-2.47;100.00
68525;BME280;55524;51.380;13.372;2023-01-28T06:20:40;101794.75;;;-2.50;100.00
68525;BME280;55524;51.380;13.372;2023-01-28T06:23:06;101797.75;;;-2.39;100.00
68525;BME280;55524;51.380;13.372;2023-01-28T06:25:32;101792.53;;;-2.40;100.00
68525;BME280;55524;51.380;13.372;2023-01-28T06:27:59;101801.03;;;-2.43;100.00
68525;BME280;55524;51.380;13.372;2023-01-28T06:30:25;101801.19;;;-2.38;100.00
68525;BME280;55524;51.380;13.372;2023-01-28T06:32:55;101797.81;;;-2.37;100.00
68525;BME280;55524;51.380;13.372;2023-01-28T06:35:22;101806.66;;;-2.31;100.00
68525;BME280;55524;51.380;13.372;2023-01-28T06:37:49;101806.38;;;-2.38;100.00
68525;BME280;55524;51.380;13.372;2023-01-28T06:40:17;101806.38;;;-2.38;100.00
68525;BME280;55524;51.380;13.372;2023-01-28T06:42:44;101803.06;;;-2.34;100.00
68525;BME280;55524;51.380;13.372;2023-01-28T06:45:10;101804.63;;;-2.39;100.00
68525;BME280;55524;51.380;13.372;2023-01-28T06:47:38;101804.75;;;-2.36;100.00
68525;BME280;55524;51.380;13.372;2023-01-28T06:50:05;101804.19;;;-2.28;100.00
68525;BME280;55524;51.380;13.372;2023-01-28T06:52:31;101803.38;;;-2.27;100.00
68525;BME280;55524;51.380;13.372;2023-01-28T06:54:57;101813.84;;;-2.24;100.00
68525;BME280;55524;51.380;13.372;2023-01-28T06:57:24;101813.69;;;-2.28;100.00
68525;BME280;55524;51.380;13.372;2023-01-28T06:59:50;101814.78;;;-2.21;100.00
68525;BME280;55524;51.380;13.372;2023-01-28T07:02:16;101814.72;;;-2.23;100.00
68525;BME280;55524;51.380;13.372;2023-01-28T07:04:43;101814.66;;;-2.25;100.00
68525;BME280;55524;51.380;13.372;2023-01-28T07:07:09;101815.59;;;-2.23;100.00
68525;BME280;55524;51.380;13.372;2023-01-28T07:09:35;101818.19;;;-2.23;100.00
68525;BME280;55524;51.380;13.372;2023-01-28T07:12:01;101819.41;;;-2.13;100.00
68525;BME280;55524;51.380;13.372;2023-01-28T07:14:30;101820.91;;;-2.19;100.00
68525;BME280;55524;51.380;13.372;2023-01-28T07:16:56;101821.00;;;-2.16;100.00
68525;BME280;55524;51.380;13.372;2023-01-28T07:19:23;101822.78;;;-2.15;100.00
68525;BME280;55524;51.380;13.372;2023-01-28T07:21:49;101824.03;;;-2.04;100.00
68525;BME280;55524;51.380;13.372;2023-01-28T07:24:15;101828.34;;;-2.05;100.00
68525;BME280;55524;51.380;13.372;2023-01-28T07:26:42;101826.47;;;-2.09;100.00
68525;BME280;55524;51.380;13.372;2023-01-28T07:29:08;101815.31;;;-2.06;100.00
68525;BME280;55524;51.380;13.372;2023-01-28T07:31:34;101820.41;;;-2.09;100.00
68525;BME280;55524;51.380;13.372;2023-01-28T07:34:01;101824.09;;;-2.03;100.00
68525;BME280;55524;51.380;13.372;2023-01-28T07:36:29;101819.25;;;-1.93;100.00
68525;BME280;55524;51.380;13.372;2023-01-28T07:38:56;101819.03;;;-2.00;100.00
68525;BME280;55524;51.380;13.372;2023-01-28T07:41:22;101817.31;;;-1.99;100.00
68525;BME280;55524;51.380;13.372;2023-01-28T07:43:48;101826.91;;;-1.96;100.00
68525;BME280;55524;51.380;13.372;2023-01-28T07:46:14;101823.56;;;-1.94;100.00
68525;BME280;55524;51.380;13.372;2023-01-28T07:48:41;101816.66;;;-1.93;100.00
68525;BME280;55524;51.380;13.372;2023-01-28T07:51:17;101821.06;;;-1.91;100.00
68525;BME280;55524;51.380;13.372;2023-01-28T07:53:43;101816.88;;;-1.87;100.00
68525;BME280;55524;51.380;13.372;2023-01-28T07:56:10;101810.09;;;-1.84;100.00
68525;BME280;55524;51.380;13.372;2023-01-28T07:58:36;101819.69;;;-1.81;100.00
68525;BME280;55524;51.380;13.372;2023-01-28T08:01:02;101818.91;;;-1.79;100.00
68525;BME280;55524;51.380;13.372;2023-01-28T08:03:29;101816.50;;;-1.74;100.00
68525;BME280;55524;51.380;13.372;2023-01-28T08:05:55;101821.88;;;-1.68;100.00
68525;BME280;55524;51.380;13.372;2023-01-28T08:08:24;101822.91;;;-1.63;100.00
68525;BME280;55524;51.380;13.372;2023-01-28T08:10:50;101825.34;;;-1.67;100.00
68525;BME280;55524;51.380;13.372;2023-01-28T08:13:18;101828.06;;;-1.64;100.00
68525;BME280;55524;51.380;13.372;2023-01-28T08:15:45;101826.44;;;-1.61;100.00
68525;BME280;55524;51.380;13.372;2023-01-28T08:18:13;101831.75;;;-1.58;100.00
68525;BME280;55524;51.380;13.372;2023-01-28T08:20:40;101834.06;;;-1.65;100.00
68525;BME280;55524;51.380;13.372;2023-01-28T08:23:16;101832.50;;;-1.60;100.00
68525;BME280;55524;51.380;13.372;2023-01-28T08:25:43;101832.63;;;-1.57;100.00
68525;BME280;55524;51.380;13.372;2023-01-28T08:28:10;101828.31;;;-1.57;100.00
68525;BME280;55524;51.380;13.372;2023-01-28T08:30:37;101835.75;;;-1.42;100.00
68525;BME280;55524;51.380;13.372;2023-01-28T08:33:06;101838.72;;;-1.55;100.00
68525;BME280;55524;51.380;13.372;2023-01-28T08:35:33;101839.56;;;-1.56;100.00
68525;BME280;55524;51.380;13.372;2023-01-28T08:38:03;101845.47;;;-1.35;100.00
68525;BME280;55524;51.380;13.372;2023-01-28T08:40:30;101842.25;;;-1.53;100.00
68525;BME280;55524;51.380;13.372;2023-01-28T08:42:56;101846.66;;;-1.51;100.00
68525;BME280;55524;51.380;13.372;2023-01-28T08:45:24;101844.06;;;-1.51;100.00
68525;BME280;55524;51.380;13.372;2023-01-28T08:47:59;101840.78;;;-1.46;100.00
68525;BME280;55524;51.380;13.372;2023-01-28T08:50:29;101844.25;;;-1.46;100.00
68525;BME280;55524;51.380;13.372;2023-01-28T08:53:00;101842.47;;;-1.47;100.00
68525;BME280;55524;51.380;13.372;2023-01-28T08:55:27;101853.72;;;-1.46;100.00
68525;BME280;55524;51.380;13.372;2023-01-28T08:57:54;101847.81;;;-1.42;100.00
68525;BME280;55524;51.380;13.372;2023-01-28T09:00:21;101849.50;;;-1.43;100.00
68525;BME280;55524;51.380;13.372;2023-01-28T09:02:51;101852.38;;;-1.35;100.00
68525;BME280;55524;51.380;13.372;2023-01-28T09:05:18;101844.59;;;-1.35;100.00
68525;BME280;55524;51.380;13.372;2023-01-28T09:07:44;101850.28;;;-1.20;100.00
68525;BME280;55524;51.380;13.372;2023-01-28T09:10:11;101862.59;;;-1.14;100.00
68525;BME280;55524;51.380;13.372;2023-01-28T09:12:38;101858.47;;;-1.08;100.00
68525;BME280;55524;51.380;13.372;2023-01-28T09:15:05;101849.94;;;-1.05;100.00
68525;BME280;55524;51.380;13.372;2023-01-28T09:17:31;101858.44;;;-1.09;100.00
68525;BME280;55524;51.380;13.372;2023-01-28T09:19:58;101861.03;;;-1.09;100.00
68525;BME280;55524;51.380;13.372;2023-01-28T09:22:24;101864.53;;;-1.07;100.00
68525;BME280;55524;51.380;13.372;2023-01-28T09:24:50;101863.88;;;-1.02;100.00
68525;BME280;55524;51.380;13.372;2023-01-28T09:27:17;101859.69;;;-0.98;100.00
68525;BME280;55524;51.380;13.372;2023-01-28T09:29:43;101863.06;;;-0.99;100.00
68525;BME280;55524;51.380;13.372;2023-01-28T09:32:09;101869.97;;;-1.00;100.00
68525;BME280;55524;51.380;13.372;2023-01-28T09:34:36;101856.97;;;-1.01;100.00
68525;BME280;55524;51.380;13.372;2023-01-28T09:37:02;101858.94;;;-0.94;100.00
68525;BME280;55524;51.380;13.372;2023-01-28T09:39:29;101861.81;;;-0.85;100.00
68525;BME280;55524;51.380;13.372;2023-01-28T09:42:25;101867.84;;;-0.86;98.67
68525;BME280;55524;51.380;13.372;2023-01-28T09:45:15;101867.03;;;-0.83;97.96
68525;BME280;55524;51.380;13.372;2023-01-28T09:47:53;101865.19;;;-0.87;98.18
68525;BME280;55524;51.380;13.372;2023-01-28T09:50:37;101881.00;;;-0.80;98.60
68525;BME280;55524;51.380;13.372;2023-01-28T09:53:20;101875.00;;;-0.79;97.53
68525;BME280;55524;51.380;13.372;2023-01-28T09:55:57;101871.53;;;-0.79;96.93
68525;BME280;55524;51.380;13.372;2023-01-28T09:58:25;101880.47;;;-0.69;96.76
68525;BME280;55524;51.380;13.372;2023-01-28T10:17:16;101894.88;;;-0.79;95.31
68525;BME280;55524;51.380;13.372;2023-01-28T10:22:51;101888.78;;;-0.53;93.03
68525;BME280;55524;51.380;13.372;2023-01-28T10:25:25;101881.72;;;-0.58;91.91
68525;BME280;55524;51.380;13.372;2023-01-28T10:27:52;101897.88;;;-0.67;92.39
68525;BME280;55524;51.380;13.372;2023-01-28T10:30:27;101896.94;;;-0.69;92.41
68525;BME280;55524;51.380;13.372;2023-01-28T10:33:02;101893.59;;;-0.65;93.58
68525;BME280;55524;51.380;13.372;2023-01-28T10:35:38;101893.66;;;-0.63;93.21
68525;BME280;55524;51.380;13.372;2023-01-28T10:38:08;101898.78;;;-0.65;93.28
68525;BME280;55524;51.380;13.372;2023-01-28T10:40:35;101892.75;;;-0.64;92.35
68525;BME280;55524;51.380;13.372;2023-01-28T10:43:02;101880.69;;;-0.63;90.02
68525;BME280;55524;51.380;13.372;2023-01-28T10:45:42;101874.69;;;-0.61;88.31
68525;BME280;55524;51.380;13.372;2023-01-28T10:48:19;101878.78;;;-0.67;88.35
68525;BME280;55524;51.380;13.372;2023-01-28T10:50:58;101883.06;;;-0.69;87.30
68525;BME280;55524;51.380;13.372;2023-01-28T10:53:41;101863.44;;;-0.61;84.35
68525;BME280;55524;51.380;13.372;2023-01-28T10:58:57;101855.44;;;-0.67;81.55
68525;BME280;55524;51.380;13.372;2023-01-28T11:01:39;101842.63;;;-0.63;81.38
68525;BME280;55524;51.380;13.372;2023-01-28T11:04:21;101849.56;;;-0.62;81.41
68525;BME280;55524;51.380;13.372;2023-01-28T11:07:34;101856.59;;;-0.59;82.01
68525;BME280;55524;51.380;13.372;2023-01-28T11:09:46;101860.69;;;-0.66;83.25
68525;BME280;55524;51.380;13.372;2023-01-28T11:12:24;101863.22;;;-0.67;82.72
68525;BME280;55524;51.380;13.372;2023-01-28T11:17:24;101859.84;;;-0.65;83.04
68525;BME280;55524;51.380;13.372;2023-01-28T11:19:59;101861.56;;;-0.65;82.21
68525;BME280;55524;51.380;13.372;2023-01-28T11:22:38;101846.28;;;-0.56;81.10
68525;BME280;55524;51.380;13.372;2023-01-28T11:25:22;101855.44;;;-0.67;82.49
68525;BME280;55524;51.380;13.372;2023-01-28T11:27:52;101840.47;;;-0.76;80.12
68525;BME280;55524;51.380;13.372;2023-01-28T11:30:25;101833.97;;;-0.63;79.27
68525;BME280;55524;51.380;13.372;2023-01-28T11:33:13;101845.38;;;-0.58;81.14
68525;BME280;55524;51.380;13.372;2023-01-28T11:35:41;101846.03;;;-0.64;82.09
68525;BME280;55524;51.380;13.372;2023-01-28T11:38:19;101857.50;;;-0.57;82.83
68525;BME280;55524;51.380;13.372;2023-01-28T11:40:53;101842.16;;;-0.50;80.84
68525;BME280;55524;51.380;13.372;2023-01-28T11:43:25;101851.06;;;-0.70;81.82
68525;BME280;55524;51.380;13.372;2023-01-28T11:46:31;101829.47;;;-0.67;80.38
68525;BME280;55524;51.380;13.372;2023-01-28T11:49:08;101828.56;;;-0.69;80.06
68525;BME280;55524;51.380;13.372;2023-01-28T11:57:24;101798.31;;;-0.69;75.78
68525;BME280;55524;51.380;13.372;2023-01-28T12:06:09;101815.84;;;-0.62;77.50
68525;BME280;55524;51.380;13.372;2023-01-28T12:25:35;101789.91;;;-0.32;76.84
68525;BME280;55524;51.380;13.372;2023-01-28T12:28:23;101796.03;;;-0.28;76.91
68525;BME280;55524;51.380;13.372;2023-01-28T12:41:57;101784.00;;;-0.26;77.58
68525;BME280;55524;51.380;13.372;2023-01-28T12:44:35;101766.03;;;-0.18;74.56
68525;BME280;55524;51.380;13.372;2023-01-28T12:47:08;101791.78;;;-0.26;76.83
68525;BME280;55524;51.380;13.372;2023-01-28T12:49:42;101793.44;;;-0.28;77.59
68525;BME280;55524;51.380;13.372;2023-01-28T12:52:19;101776.34;;;-0.21;75.86
68525;BME280;55524;51.380;13.372;2023-01-28T12:54:58;101760.75;;;-0.21;74.93
68525;BME280;55524;51.380;13.372;2023-01-28T12:57:29;101782.19;;;-0.29;77.18
68525;BME280;55524;51.380;13.372;2023-01-28T13:02:44;101786.41;;;-0.32;76.80
68525;BME280;55524;51.380;13.372;2023-01-28T13:05:17;101783.03;;;-0.30;76.86
68525;BME280;55524;51.380;13.372;2023-01-28T13:10:41;101785.81;;;-0.23;76.89
68525;BME280;55524;51.380;13.372;2023-01-28T13:15:45;101799.56;;;-0.28;78.12
68525;BME280;55524;51.380;13.372;2023-01-28T13:20:54;101781.72;;;-0.15;77.11
68525;BME280;55524;51.380;13.372;2023-01-28T13:23:39;101787.69;;;-0.18;77.00
68525;BME280;55524;51.380;13.372;2023-01-28T13:26:42;101790.94;;;-0.25;76.82
68525;BME280;55524;51.380;13.372;2023-01-28T13:31:52;101785.63;;;-0.30;77.02
68525;BME280;55524;51.380;13.372;2023-01-28T13:36:56;101787.72;;;-0.16;75.24
68525;BME280;55524;51.380;13.372;2023-01-28T13:39:25;101808.22;;;-0.27;77.00
68525;BME280;55524;51.380;13.372;2023-01-28T13:42:18;101805.50;;;-0.32;76.95
68525;BME280;55524;51.380;13.372;2023-01-28T13:44:46;101813.94;;;-0.39;77.21
68525;BME280;55524;51.380;13.372;2023-01-28T13:47:30;101800.31;;;-0.32;75.96
68525;BME280;55524;51.380;13.372;2023-01-28T13:50:17;101810.53;;;-0.36;77.23
68525;BME280;55524;51.380;13.372;2023-01-28T13:55:26;101823.34;;;-0.42;77.75
68525;BME280;55524;51.380;13.372;2023-01-28T14:17:44;101831.81;;;-0.48;78.79
68525;BME280;55524;51.380;13.372;2023-01-28T14:20:31;101855.38;;;-0.42;81.94
68525;BME280;55524;51.380;13.372;2023-01-28T14:23:05;101833.59;;;-0.47;80.84
68525;BME280;55524;51.380;13.372;2023-01-28T14:26:04;101836.13;;;-0.48;81.35
68525;BME280;55524;51.380;13.372;2023-01-28T14:31:34;101846.56;;;-0.47;80.88
68525;BME280;55524;51.380;13.372;2023-01-28T14:37:07;101839.59;;;-0.48;82.56
68525;BME280;55524;51.380;13.372;2023-01-28T14:39:47;101838.63;;;-0.52;82.96
68525;BME280;55524;51.380;13.372;2023-01-28T14:42:41;101830.75;;;-0.55;81.51
68525;BME280;55524;51.380;13.372;2023-01-28T14:51:32;101834.09;;;-0.59;83.49
68525;BME280;55524;51.380;13.372;2023-01-28T14:57:15;101839.16;;;-0.63;85.07
68525;BME280;55524;51.380;13.372;2023-01-28T14:59:51;101846.09;;;-0.62;85.43
68525;BME280;55524;51.380;13.372;2023-01-28T15:02:21;101850.34;;;-0.64;84.95
68525;BME280;55524;51.380;13.372;2023-01-28T15:04:49;101857.16;;;-0.68;86.06
68525;BME280;55524;51.380;13.372;2023-01-28T15:07:26;101839.78;;;-0.70;85.24
68525;BME280;55524;51.380;13.372;2023-01-28T15:10:00;101849.34;;;-0.69;85.13
68525;BME280;55524;51.380;13.372;2023-01-28T15:12:28;101830.44;;;-0.65;83.04
68525;BME280;55524;51.380;13.372;2023-01-28T15:14:55;101826.59;;;-0.78;83.32
68525;BME280;55524;51.380;13.372;2023-01-28T15:17:25;101830.97;;;-0.76;83.83